Kastav — 9AA6417 — position and weather

sailwx.info

Track history (hours):
 
Tides and Currents Weather Stations Pressure Air Temp Water Temp Dewpoint Dewpoint Depression Visibility Wind Speed Wind Dir Waves Ship Positions

Kastav

Last reported at 2017-Apr-26 11:23 UTC. Time now 2017-Apr-27 16:44 UTC.
Position N 58°00' E 005°34'.

Length 195 m; draft 11.8 m.

Type: Ship (hazmat cat C). MMSI: 238257000.

Date/timePositionNaut miles runAvg speedWind from/ knotsBaromVisibWave heightAir tempDewpointWater temp
2017-Apr-26 11:23N 58°00' E 005°34'511.2
2017-Apr-26 10:55N 57°59' E 005°43'511.3
2017-Apr-26 10:30N 57°57' E 005°52'511.0
2017-Apr-26 10:00N 57°55' E 006°01'611.7
2017-Apr-26 09:30N 57°53' E 006°12'612.2
2017-Apr-26 08:59N 57°51' E 006°23'612.7
2017-Apr-26 08:30N 57°49' E 006°33'713.2
2017-Apr-26 08:00N 57°47' E 006°45'713.8
2017-Apr-26 07:31N 57°46' E 006°58'713.8
2017-Apr-26 06:59N 57°45' E 007°11'713.8
2017-Apr-26 06:30N 57°45' E 007°24'713.8
2017-Apr-26 06:00N 57°45' E 007°37'713.7
2017-Apr-26 05:30N 57°45' E 007°50'713.8
2017-Apr-26 05:00N 57°45' E 008°02'7412.7
2017-Apr-25 23:10N 57°48' E 010°22'212.6
2017-Apr-25 23:00N 57°49' E 010°25'612.6
2017-Apr-25 22:30N 57°49' E 010°37'612.0
2017-Apr-25 22:00N 57°46' E 010°48'3 6.4
2017-Apr-25 21:30N 57°45' E 010°53'3 6.1
2017-Apr-25 21:00N 57°43' E 010°58'611.4
2017-Apr-25 20:29N 57°39' E 011°06'611.8
2017-Apr-25 20:00N 57°35' E 011°14'612.6
2017-Apr-25 19:30N 57°31' E 011°23'612.6
2017-Apr-25 19:00N 57°25' E 011°28'612.0
2017-Apr-25 18:30N 57°20' E 011°32'612.0
2017-Apr-25 18:00N 57°14' E 011°36'712.0
2017-Apr-25 17:25N 57°08' E 011°40'511.8
2017-Apr-25 17:00N 57°03' E 011°43'11111.1
2017-Apr-25 06:58N 55°14' E 011°06'4 8.8
2017-Apr-25 06:30N 55°10' E 011°02'511.0
2017-Apr-25 06:00N 55°05' E 010°59'611.2
2017-Apr-25 05:30N 54°60' E 010°59'611.3
2017-Apr-25 05:00N 54°55' E 010°52'510.9
2017-Apr-25 04:30N 54°50' E 010°50'511.0
2017-Apr-25 04:00N 54°45' E 010°47'510.4
2017-Apr-25 03:30N 54°40' E 010°50'612.2
2017-Apr-25 03:00N 54°36' E 010°59'612.4
2017-Apr-25 02:30N 54°35' E 011°10'612.1
2017-Apr-25 02:00N 54°33' E 011°19'612.2
2017-Apr-25 01:30N 54°31' E 011°29'612.7
2017-Apr-25 01:00N 54°28' E 011°39'712.5
2017-Apr-25 00:26N 54°26' E 011°51'1212.7
2017-Apr-24 23:32N 54°27' E 012°10'012.9
2017-Apr-24 23:30N 54°27' E 012°11'612.5
2017-Apr-24 23:00N 54°33' E 012°14'5 9.6
2017-Apr-24 22:30N 54°37' E 012°18'4012.2
2017-Apr-24 19:13N 54°55' E 013°20'312.4
2017-Apr-24 18:59N 54°56' E 013°25'612.3
2017-Apr-24 18:30N 54°58' E 013°35'612.1
2017-Apr-24 18:00N 55°00' E 013°45'611.9
2017-Apr-24 17:29N 55°02' E 013°55'611.8
2017-Apr-24 17:00N 55°05' E 014°04'611.5
2017-Apr-24 16:30N 55°09' E 014°11'611.3
2017-Apr-24 16:00N 55°13' E 014°17'611.1
2017-Apr-24 15:30N 55°18' E 014°23'611.3
2017-Apr-24 15:00N 55°22' E 014°29'611.1
2017-Apr-24 14:30N 55°26' E 014°35'1111.2
2017-Apr-24 13:30N 55°32' E 014°53'510.9
2017-Apr-24 13:00N 55°34' E 015°01'510.9
2017-Apr-24 12:30N 55°37' E 015°10'611.3
2017-Apr-24 12:00N 55°38' E 015°20'34111.7
2017-Apr-23 06:51N 59°32' E 023°02'412.5
2017-Apr-23 06:30N 59°32' E 023°11'712.5
2017-Apr-23 05:55N 59°32' E 023°25'512.5
2017-Apr-23 05:30N 59°31' E 023°35'21 2.0
2017-Apr-22 18:40N 59°42' E 024°12'411.8
2017-Apr-22 18:22N 59°45' E 024°16'7311.6
2017-Apr-22 12:02N 59°47' E 026°41'112.3
2017-Apr-22 11:59N 59°47' E 026°42'612.2
2017-Apr-22 11:30N 59°44' E 026°52'1112.1
2017-Apr-22 10:36N 59°38' E 027°11'112.0
2017-Apr-22 10:30N 59°38' E 027°13'611.9
2017-Apr-22 10:00N 59°35' E 027°23'612.2
2017-Apr-22 09:30N 59°32' E 027°33'611.1
2017-Apr-22 09:00N 59°28' E 027°42'3 5.8
2017-Apr-22 08:30N 59°26' E 027°44'1 0.0
2017-Apr-21 11:15N 59°25' E 027°43'0 0.0
2017-Apr-21 10:59N 59°25' E 027°43'0 0.0
2017-Apr-21 10:29N 59°25' E 027°43'0 0.0
2017-Apr-21 10:00N 59°25' E 027°43'0 0.0
2017-Apr-21 09:30N 59°25' E 027°43'0 0.0
2017-Apr-21 09:00N 59°25' E 027°43'0 0.0
2017-Apr-20 08:12N 59°25' E 027°43'0 0.1
2017-Apr-20 08:00N 59°25' E 027°43'0 0.9
2017-Apr-20 07:29N 59°26' E 027°43'3 5.6
2017-Apr-20 07:00N 59°28' E 027°41'5 9.4
2017-Apr-20 06:31N 59°32' E 027°35'612.8
2017-Apr-20 06:00N 59°35' E 027°24'713.9
2017-Apr-20 05:29N 59°38' E 027°11'713.8
2017-Apr-20 05:00N 59°42' E 026°60'713.8
2017-Apr-20 04:30N 59°45' E 026°48'713.8
2017-Apr-20 03:59N 59°49' E 026°36'713.9
2017-Apr-20 03:28N 59°52' E 026°24'613.2
2017-Apr-20 03:00N 59°55' E 026°12'714.1
2017-Apr-20 02:30N 59°53' E 025°59'714.0
2017-Apr-20 01:59N 59°52' E 025°44'5114.1
2017-Apr-19 22:23N 59°40' E 024°06'614.0
2017-Apr-19 21:58N 59°39' E 023°55'714.0
2017-Apr-19 21:29N 59°36' E 023°43'714.2
2017-Apr-19 21:00N 59°34' E 023°30'713.9
2017-Apr-19 20:30N 59°32' E 023°17'713.8
2017-Apr-19 20:00N 59°30' E 023°04'714.1
2017-Apr-19 19:30N 59°28' E 022°51'714.3
2017-Apr-19 19:00N 59°25' E 022°38'32212.6
2017-Apr-18 17:24N 55°38' E 015°33'512.8
2017-Apr-18 17:00N 55°36' E 015°24'712.9
2017-Apr-18 16:30N 55°33' E 015°13'712.9
2017-Apr-18 16:00N 55°30' E 015°03'713.2
2017-Apr-18 15:30N 55°27' E 014°53'612.6
2017-Apr-18 15:01N 55°25' E 014°43'611.3
2017-Apr-18 14:30N 55°21' E 014°35'1313.0
2017-Apr-18 13:31N 55°11' E 014°21'612.3
2017-Apr-18 13:00N 55°10' E 014°10'612.8
2017-Apr-18 12:30N 55°10' E 013°59'612.7
2017-Apr-18 11:59N 55°11' E 013°48'612.4
2017-Apr-18 11:30N 55°12' E 013°38'612.5
2017-Apr-18 11:00N 55°12' E 013°27'812.9
2017-Apr-18 10:22N 55°13' E 013°13'513.0
2017-Apr-18 10:00N 55°14' E 013°04'713.2
2017-Apr-18 09:30N 55°15' E 012°53'713.1
2017-Apr-18 09:00N 55°17' E 012°42'510.2
2017-Apr-18 08:30N 55°22' E 012°39'611.5
2017-Apr-18 08:01N 55°27' E 012°41'510.3
2017-Apr-18 07:31N 55°33' E 012°42'4 7.4
2017-Apr-18 07:01N 55°36' E 012°42'4 8.8
2017-Apr-18 06:31N 55°41' E 012°41'510.4
2017-Apr-18 06:01N 55°46' E 012°41'510.6
2017-Apr-18 05:31N 55°51' E 012°41'510.8
2017-Apr-18 05:01N 55°56' E 012°38'510.5
2017-Apr-18 04:31N 56°02' E 012°38'4 7.6
2017-Apr-18 04:01N 56°05' E 012°35'4 7.7
2017-Apr-18 03:31N 56°08' E 012°30'510.7
2017-Apr-18 03:01N 56°11' E 012°22'5112.7
2017-Apr-17 23:00N 56°57' E 011°44'813.6
2017-Apr-17 22:23N 57°05' E 011°39'513.4
2017-Apr-17 21:59N 57°10' E 011°36'613.4
2017-Apr-17 21:30N 57°16' E 011°32'713.3
2017-Apr-17 21:00N 57°23' E 011°28'612.8
2017-Apr-17 20:30N 57°28' E 011°23'713.1
2017-Apr-17 20:00N 57°33' E 011°14'713.2
2017-Apr-17 19:30N 57°37' E 011°05'713.4
2017-Apr-17 19:00N 57°42' E 010°56'713.3
2017-Apr-17 18:30N 57°46' E 010°47'612.2
2017-Apr-17 18:00N 57°47' E 010°36'612.5
2017-Apr-17 17:30N 57°44' E 010°26'1 2.6
2017-Apr-17 16:58N 57°43' E 010°23'0 0.0
2017-Apr-17 16:22N 57°43' E 010°23'0 0.1
2017-Apr-17 15:55N 57°43' E 010°23'0 0.1
2017-Apr-17 15:28N 57°43' E 010°23'0 0.0
2017-Apr-17 14:58N 57°43' E 010°23'0 0.0
2017-Apr-17 13:58N 57°43' E 010°23'0 0.0
2017-Apr-17 13:25N 57°43' E 010°23'0 0.1
2017-Apr-17 12:58N 57°43' E 010°23'0 0.0
2017-Apr-17 12:28N 57°43' E 010°23'0 0.1
2017-Apr-17 11:58N 57°43' E 010°23'0 0.0
2017-Apr-17 11:22N 57°43' E 010°23'0 0.1
2017-Apr-17 10:58N 57°43' E 010°23'0 0.1
2017-Apr-17 10:28N 57°43' E 010°23'1 1.3
2017-Apr-17 09:59N 57°44' E 010°24'3 6.7
2017-Apr-17 09:30N 57°45' E 010°29'612.0
2017-Apr-17 09:00N 57°46' E 010°40'4 7.5
2017-Apr-17 08:30N 57°43' E 010°43'2 3.5
2017-Apr-17 07:58N 57°42' E 010°40'0 0.0
2017-Apr-17 07:28N 57°42' E 010°40'0 0.0
2017-Apr-17 06:58N 57°42' E 010°40'0 0.0
2017-Apr-17 06:25N 57°42' E 010°40'0 0.0
2017-Apr-17 05:58N 57°42' E 010°40'1 2.2
2017-Apr-17 05:30N 57°42' E 010°42'3 6.0
2017-Apr-17 05:00N 57°45' E 010°45'4 7.7
2017-Apr-17 04:30N 57°48' E 010°41'612.3
2017-Apr-17 03:59N 57°48' E 010°29'713.2
2017-Apr-17 03:26N 57°48' E 010°15'19412.9
2017-Apr-16 12:20N 55°29' E 006°09'513.5
2017-Apr-16 11:59N 55°25' E 006°04'713.6
2017-Apr-16 11:30N 55°20' E 005°58'  
Track history (hours):
 
Tides and Currents Weather Stations Pressure Air Temp Water Temp Dewpoint Dewpoint Depression Visibility Wind Speed Wind Dir Waves Ship Positions

Kastav

Last reported at 2017-Apr-26 11:23 UTC. Time now 2017-Apr-27 16:44 UTC.
Position N 58°00' E 005°34'.

Length 195 m; draft 11.8 m.

Type: Ship (hazmat cat C). MMSI: 238257000.

Date/timePositionNaut miles runAvg speedWind from/ knotsBaromVisibWave heightAir tempDewpointWater temp
2017-Apr-26 11:23N 58°00' E 005°34'511.2
2017-Apr-26 10:55N 57°59' E 005°43'511.3
2017-Apr-26 10:30N 57°57' E 005°52'511.0
2017-Apr-26 10:00N 57°55' E 006°01'611.7
2017-Apr-26 09:30N 57°53' E 006°12'612.2
2017-Apr-26 08:59N 57°51' E 006°23'612.7
2017-Apr-26 08:30N 57°49' E 006°33'713.2
2017-Apr-26 08:00N 57°47' E 006°45'713.8
2017-Apr-26 07:31N 57°46' E 006°58'713.8
2017-Apr-26 06:59N 57°45' E 007°11'713.8
2017-Apr-26 06:30N 57°45' E 007°24'713.8
2017-Apr-26 06:00N 57°45' E 007°37'713.7
2017-Apr-26 05:30N 57°45' E 007°50'713.8
2017-Apr-26 05:00N 57°45' E 008°02'7412.7
2017-Apr-25 23:10N 57°48' E 010°22'212.6
2017-Apr-25 23:00N 57°49' E 010°25'612.6
2017-Apr-25 22:30N 57°49' E 010°37'612.0
2017-Apr-25 22:00N 57°46' E 010°48'3 6.4
2017-Apr-25 21:30N 57°45' E 010°53'3 6.1
2017-Apr-25 21:00N 57°43' E 010°58'611.4
2017-Apr-25 20:29N 57°39' E 011°06'611.8
2017-Apr-25 20:00N 57°35' E 011°14'612.6
2017-Apr-25 19:30N 57°31' E 011°23'612.6
2017-Apr-25 19:00N 57°25' E 011°28'612.0
2017-Apr-25 18:30N 57°20' E 011°32'612.0
2017-Apr-25 18:00N 57°14' E 011°36'712.0
2017-Apr-25 17:25N 57°08' E 011°40'511.8
2017-Apr-25 17:00N 57°03' E 011°43'11111.1
2017-Apr-25 06:58N 55°14' E 011°06'4 8.8
2017-Apr-25 06:30N 55°10' E 011°02'511.0
2017-Apr-25 06:00N 55°05' E 010°59'611.2
2017-Apr-25 05:30N 54°60' E 010°59'611.3
2017-Apr-25 05:00N 54°55' E 010°52'510.9
2017-Apr-25 04:30N 54°50' E 010°50'511.0
2017-Apr-25 04:00N 54°45' E 010°47'510.4
2017-Apr-25 03:30N 54°40' E 010°50'612.2
2017-Apr-25 03:00N 54°36' E 010°59'612.4
2017-Apr-25 02:30N 54°35' E 011°10'612.1
2017-Apr-25 02:00N 54°33' E 011°19'612.2
2017-Apr-25 01:30N 54°31' E 011°29'612.7
2017-Apr-25 01:00N 54°28' E 011°39'712.5
2017-Apr-25 00:26N 54°26' E 011°51'1212.7
2017-Apr-24 23:32N 54°27' E 012°10'012.9
2017-Apr-24 23:30N 54°27' E 012°11'612.5
2017-Apr-24 23:00N 54°33' E 012°14'5 9.6
2017-Apr-24 22:30N 54°37' E 012°18'4012.2
2017-Apr-24 19:13N 54°55' E 013°20'312.4
2017-Apr-24 18:59N 54°56' E 013°25'612.3
2017-Apr-24 18:30N 54°58' E 013°35'612.1
2017-Apr-24 18:00N 55°00' E 013°45'611.9
2017-Apr-24 17:29N 55°02' E 013°55'611.8
2017-Apr-24 17:00N 55°05' E 014°04'611.5
2017-Apr-24 16:30N 55°09' E 014°11'611.3
2017-Apr-24 16:00N 55°13' E 014°17'611.1
2017-Apr-24 15:30N 55°18' E 014°23'611.3
2017-Apr-24 15:00N 55°22' E 014°29'611.1
2017-Apr-24 14:30N 55°26' E 014°35'1111.2
2017-Apr-24 13:30N 55°32' E 014°53'510.9
2017-Apr-24 13:00N 55°34' E 015°01'510.9
2017-Apr-24 12:30N 55°37' E 015°10'611.3
2017-Apr-24 12:00N 55°38' E 015°20'34111.7
2017-Apr-23 06:51N 59°32' E 023°02'412.5
2017-Apr-23 06:30N 59°32' E 023°11'712.5
2017-Apr-23 05:55N 59°32' E 023°25'512.5
2017-Apr-23 05:30N 59°31' E 023°35'21 2.0
2017-Apr-22 18:40N 59°42' E 024°12'411.8
2017-Apr-22 18:22N 59°45' E 024°16'7311.6
2017-Apr-22 12:02N 59°47' E 026°41'112.3
2017-Apr-22 11:59N 59°47' E 026°42'612.2
2017-Apr-22 11:30N 59°44' E 026°52'1112.1
2017-Apr-22 10:36N 59°38' E 027°11'112.0
2017-Apr-22 10:30N 59°38' E 027°13'611.9
2017-Apr-22 10:00N 59°35' E 027°23'612.2
2017-Apr-22 09:30N 59°32' E 027°33'611.1
2017-Apr-22 09:00N 59°28' E 027°42'3 5.8
2017-Apr-22 08:30N 59°26' E 027°44'1 0.0
2017-Apr-21 11:15N 59°25' E 027°43'0 0.0
2017-Apr-21 10:59N 59°25' E 027°43'0 0.0
2017-Apr-21 10:29N 59°25' E 027°43'0 0.0
2017-Apr-21 10:00N 59°25' E 027°43'0 0.0
2017-Apr-21 09:30N 59°25' E 027°43'0 0.0
2017-Apr-21 09:00N 59°25' E 027°43'0 0.0
2017-Apr-20 08:12N 59°25' E 027°43'0 0.1
2017-Apr-20 08:00N 59°25' E 027°43'0 0.9
2017-Apr-20 07:29N 59°26' E 027°43'3 5.6
2017-Apr-20 07:00N 59°28' E 027°41'5 9.4
2017-Apr-20 06:31N 59°32' E 027°35'612.8
2017-Apr-20 06:00N 59°35' E 027°24'713.9
2017-Apr-20 05:29N 59°38' E 027°11'713.8
2017-Apr-20 05:00N 59°42' E 026°60'713.8
2017-Apr-20 04:30N 59°45' E 026°48'713.8
2017-Apr-20 03:59N 59°49' E 026°36'713.9
2017-Apr-20 03:28N 59°52' E 026°24'613.2
2017-Apr-20 03:00N 59°55' E 026°12'714.1
2017-Apr-20 02:30N 59°53' E 025°59'714.0
2017-Apr-20 01:59N 59°52' E 025°44'5114.1
2017-Apr-19 22:23N 59°40' E 024°06'614.0
2017-Apr-19 21:58N 59°39' E 023°55'714.0
2017-Apr-19 21:29N 59°36' E 023°43'714.2
2017-Apr-19 21:00N 59°34' E 023°30'713.9
2017-Apr-19 20:30N 59°32' E 023°17'713.8
2017-Apr-19 20:00N 59°30' E 023°04'714.1
2017-Apr-19 19:30N 59°28' E 022°51'714.3
2017-Apr-19 19:00N 59°25' E 022°38'32212.6
2017-Apr-18 17:24N 55°38' E 015°33'512.8
2017-Apr-18 17:00N 55°36' E 015°24'712.9
2017-Apr-18 16:30N 55°33' E 015°13'712.9
2017-Apr-18 16:00N 55°30' E 015°03'713.2
2017-Apr-18 15:30N 55°27' E 014°53'612.6
2017-Apr-18 15:01N 55°25' E 014°43'611.3
2017-Apr-18 14:30N 55°21' E 014°35'1313.0
2017-Apr-18 13:31N 55°11' E 014°21'612.3
2017-Apr-18 13:00N 55°10' E 014°10'612.8
2017-Apr-18 12:30N 55°10' E 013°59'612.7
2017-Apr-18 11:59N 55°11' E 013°48'612.4
2017-Apr-18 11:30N 55°12' E 013°38'612.5
2017-Apr-18 11:00N 55°12' E 013°27'812.9
2017-Apr-18 10:22N 55°13' E 013°13'513.0
2017-Apr-18 10:00N 55°14' E 013°04'713.2
2017-Apr-18 09:30N 55°15' E 012°53'713.1
2017-Apr-18 09:00N 55°17' E 012°42'510.2
2017-Apr-18 08:30N 55°22' E 012°39'611.5
2017-Apr-18 08:01N 55°27' E 012°41'510.3
2017-Apr-18 07:31N 55°33' E 012°42'4 7.4
2017-Apr-18 07:01N 55°36' E 012°42'4 8.8
2017-Apr-18 06:31N 55°41' E 012°41'510.4
2017-Apr-18 06:01N 55°46' E 012°41'510.6
2017-Apr-18 05:31N 55°51' E 012°41'510.8
2017-Apr-18 05:01N 55°56' E 012°38'510.5
2017-Apr-18 04:31N 56°02' E 012°38'4 7.6
2017-Apr-18 04:01N 56°05' E 012°35'4 7.7
2017-Apr-18 03:31N 56°08' E 012°30'510.7
2017-Apr-18 03:01N 56°11' E 012°22'5112.7
2017-Apr-17 23:00N 56°57' E 011°44'813.6
2017-Apr-17 22:23N 57°05' E 011°39'513.4
2017-Apr-17 21:59N 57°10' E 011°36'613.4
2017-Apr-17 21:30N 57°16' E 011°32'713.3
2017-Apr-17 21:00N 57°23' E 011°28'612.8
2017-Apr-17 20:30N 57°28' E 011°23'713.1
2017-Apr-17 20:00N 57°33' E 011°14'713.2
2017-Apr-17 19:30N 57°37' E 011°05'713.4
2017-Apr-17 19:00N 57°42' E 010°56'713.3
2017-Apr-17 18:30N 57°46' E 010°47'612.2
2017-Apr-17 18:00N 57°47' E 010°36'612.5
2017-Apr-17 17:30N 57°44' E 010°26'1 2.6
2017-Apr-17 16:58N 57°43' E 010°23'0 0.0
2017-Apr-17 16:22N 57°43' E 010°23'0 0.1
2017-Apr-17 15:55N 57°43' E 010°23'0 0.1
2017-Apr-17 15:28N 57°43' E 010°23'0 0.0
2017-Apr-17 14:58N 57°43' E 010°23'0 0.0
2017-Apr-17 13:58N 57°43' E 010°23'0 0.0
2017-Apr-17 13:25N 57°43' E 010°23'0 0.1
2017-Apr-17 12:58N 57°43' E 010°23'0 0.0
2017-Apr-17 12:28N 57°43' E 010°23'0 0.1
2017-Apr-17 11:58N 57°43' E 010°23'0 0.0
2017-Apr-17 11:22N 57°43' E 010°23'0 0.1
2017-Apr-17 10:58N 57°43' E 010°23'0 0.1
2017-Apr-17 10:28N 57°43' E 010°23'1 1.3
2017-Apr-17 09:59N 57°44' E 010°24'3 6.7
2017-Apr-17 09:30N 57°45' E 010°29'612.0
2017-Apr-17 09:00N 57°46' E 010°40'4 7.5
2017-Apr-17 08:30N 57°43' E 010°43'2 3.5
2017-Apr-17 07:58N 57°42' E 010°40'0 0.0
2017-Apr-17 07:28N 57°42' E 010°40'0 0.0
2017-Apr-17 06:58N 57°42' E 010°40'0 0.0
2017-Apr-17 06:25N 57°42' E 010°40'0 0.0
2017-Apr-17 05:58N 57°42' E 010°40'1 2.2
2017-Apr-17 05:30N 57°42' E 010°42'3 6.0
2017-Apr-17 05:00N 57°45' E 010°45'4 7.7
2017-Apr-17 04:30N 57°48' E 010°41'612.3
2017-Apr-17 03:59N 57°48' E 010°29'713.2
2017-Apr-17 03:26N 57°48' E 010°15'19412.9
2017-Apr-16 12:20N 55°29' E 006°09'513.5
2017-Apr-16 11:59N 55°25' E 006°04'713.6
2017-Apr-16 11:30N 55°20' E 005°58'  

Dump ship's entire track history